Time;durP1;ratioP1;P1;durP2;ratioP2;P2;SDS_P1;SDS_P2;PMS_P1;PMS_P2;Temp;Humidity;BMP_temperature;BMP_pressure;BME280_temperature;BME280_humidity;BME280_pressure;Samples;Min_cycle;Max_cycle;Signal;HPM_P1;HPM_P2
2021/01/21 00:00:25;;;;;;;43.48;16.42;;;;;;;11.80;41.88;154214.61;1717518;82;21217;-71
2021/01/21 00:02:58;;;;;;;36.85;13.93;;;;;;;11.59;43.59;154158.17;1733245;82;21408;-71
2021/01/21 00:05:30;;;;;;;33.20;13.93;;;;;;;11.20;42.72;154055.83;1732749;81;21288;-72
2021/01/21 00:08:03;;;;;;;43.40;16.10;;;;;;;10.87;41.41;153970.58;1732547;82;21263;-72
2021/01/21 00:10:36;;;;;;;41.63;16.57;;;;;;;11.51;41.61;154137.14;1726429;82;21262;-72
2021/01/21 00:13:09;;;;;;;38.80;15.72;;;;;;;11.37;43.24;154100.41;1731636;82;21331;-71
2021/01/21 00:15:41;;;;;;;41.73;15.95;;;;;;;10.33;46.81;153827.69;1728012;82;21328;-71
2021/01/21 00:18:14;;;;;;;49.18;16.75;;;;;;;10.87;48.68;153969.30;1734759;82;21226;-71
2021/01/21 00:20:47;;;;;;;38.58;15.00;;;;;;;11.03;47.02;154012.56;1726648;82;21769;-71
2021/01/21 00:23:19;;;;;;;39.53;14.83;;;;;;;10.63;44.89;153906.36;1725963;82;21786;-72
2021/01/21 00:25:52;;;;;;;44.85;16.37;;;;;;;10.91;46.32;153981.09;1732457;82;21373;-73
2021/01/21 00:28:25;;;;;;;47.00;16.30;;;;;;;10.76;44.55;153939.13;1735021;82;21352;-71
2021/01/21 00:30:58;;;;;;;37.75;15.72;;;;;;;10.89;43.39;153975.83;1732514;82;21210;-71
2021/01/21 00:33:31;;;;;;;42.58;16.85;;;;;;;11.39;48.81;154107.00;1727086;82;21344;-71
2021/01/21 00:36:05;;;;;;;45.05;15.35;;;;;;;11.11;45.34;154033.53;1729635;82;21311;-71
2021/01/21 00:38:37;;;;;;;38.30;15.53;;;;;;;11.25;44.28;154070.27;1736012;82;21184;-72
2021/01/21 00:41:10;;;;;;;40.50;16.10;;;;;;;11.11;43.39;154032.23;1735982;82;21738;-71
2021/01/21 00:43:43;;;;;;;39.48;15.75;;;;;;;11.21;43.80;154059.75;1733480;82;21824;-72
2021/01/21 00:46:16;;;;;;;35.05;15.65;;;;;;;11.35;43.16;154096.48;1736059;82;21189;-71
2021/01/21 00:48:50;;;;;;;39.98;14.53;;;;;;;11.19;41.99;154054.50;1730565;82;21337;-72
2021/01/21 00:51:29;;;;;;;40.00;16.52;;;;;;;11.18;41.95;154051.88;1734938;81;21192;-72
2021/01/21 00:53:57;;;;;;;33.48;14.98;;;;;;;11.22;42.05;154061.09;1724986;82;22017;-71
2021/01/21 00:56:31;;;;;;;41.98;15.98;;;;;;;11.13;42.49;154037.44;1729038;82;21355;-71
2021/01/21 00:59:04;;;;;;;40.75;15.65;;;;;;;10.80;42.16;153952.25;1736022;82;21261;-72
2021/01/21 01:01:38;;;;;;;39.23;17.02;;;;;;;11.32;42.35;154087.31;1734353;82;21295;-72
2021/01/21 01:04:12;;;;;;;35.38;14.15;;;;;;;11.37;41.91;154100.41;1734487;82;21436;-72
2021/01/21 01:06:47;;;;;;;39.15;15.68;;;;;;;11.37;41.39;154100.41;1735564;82;21169;-71
2021/01/21 01:09:20;;;;;;;37.65;14.38;;;;;;;11.17;41.88;154049.23;1733663;82;21713;-71
2021/01/21 01:11:53;;;;;;;36.17;14.55;;;;;;;11.09;41.79;154026.98;1714446;82;21171;-72
2021/01/21 01:14:26;;;;;;;32.00;13.35;;;;;;;10.96;41.43;153992.89;1718342;82;21351;-72
2021/01/21 01:16:59;;;;;;;37.75;15.93;;;;;;;10.92;41.47;153983.72;1732848;82;21242;-72
2021/01/21 01:19:34;;;;;;;32.15;14.33;;;;;;;10.93;41.52;153985.00;1712602;82;21191;-72
2021/01/21 01:22:06;;;;;;;39.23;15.03;;;;;;;11.00;42.09;154003.34;1717959;82;21236;-71
2021/01/21 01:24:39;;;;;;;37.75;14.05;;;;;;;10.90;42.01;153977.12;1713577;82;21185;-72
2021/01/21 01:27:11;;;;;;;37.20;15.15;;;;;;;11.07;41.82;154021.73;1714573;82;21327;-71
2021/01/21 01:29:46;;;;;;;33.85;14.33;;;;;;;11.13;42.01;154037.44;1718741;82;21347;-72
2021/01/21 01:32:20;;;;;;;39.50;14.87;;;;;;;11.14;52.61;154040.06;1717736;82;21221;-70
2021/01/21 01:34:54;;;;;;;35.25;14.15;;;;;;;11.35;44.52;154096.48;1715373;81;21253;-71
2021/01/21 01:37:28;;;;;;;30.20;14.05;;;;;;;11.39;42.96;154107.00;1729625;81;22348;-71
2021/01/21 01:40:02;;;;;;;28.85;12.18;;;;;;;11.47;42.66;154126.63;1729328;82;21715;-71
2021/01/21 01:42:44;;;;;;;37.33;14.90;;;;;;;11.27;42.50;154074.17;1725676;82;21247;-71
2021/01/21 01:45:18;;;;;;;36.10;16.40;;;;;;;11.42;43.46;154113.55;1720027;82;21711;-71
2021/01/21 01:47:52;;;;;;;34.45;14.18;;;;;;;11.29;42.17;154079.42;1731737;82;22434;-74
2021/01/21 01:50:26;;;;;;;35.95;14.93;;;;;;;11.11;42.38;154033.53;1712020;82;21348;-70
2021/01/21 01:52:59;;;;;;;35.10;14.30;;;;;;;11.26;42.35;154071.55;1714784;82;21355;-71
2021/01/21 01:55:32;;;;;;;36.33;13.80;;;;;;;11.42;42.48;154114.83;1718060;82;21194;-71
2021/01/21 01:58:18;;;;;;;38.15;14.73;;;;;;;11.54;42.23;154145.08;1700039;82;21310;-71
2021/01/21 02:00:55;;;;;;;41.35;16.15;;;;;;;11.25;42.08;154068.92;1708677;82;21174;-71
2021/01/21 02:03:27;;;;;;;33.65;14.55;;;;;;;10.70;51.07;153924.70;1707463;82;21394;-71
2021/01/21 02:06:21;;;;;;;33.10;14.33;;;;;;;11.04;50.64;154015.19;1696739;84;21727;-71
2021/01/21 02:08:56;;;;;;;31.50;12.70;;;;;;;11.16;49.45;154045.31;1701506;84;21757;-71
2021/01/21 02:11:55;;;;;;;31.25;13.40;;;;;;;11.16;48.56;154046.66;1713665;81;21348;-72
2021/01/21 02:14:57;;;;;;;31.35;13.43;;;;;;;11.51;47.71;154138.48;1763937;81;21346;-72
2021/01/21 02:17:50;;;;;;;35.23;14.13;;;;;;;11.66;46.03;154176.56;1701227;80;21345;-72
2021/01/21 02:21:10;;;;;;;43.45;14.28;;;;;;;11.46;44.56;154124.05;1725600;82;21216;-72
2021/01/21 02:24:07;;;;;;;32.78;14.00;;;;;;;11.39;43.94;154107.00;1772170;81;21198;-71
2021/01/21 02:26:53;;;;;;;40.65;16.93;;;;;;;11.43;45.42;154116.16;1771293;81;21199;-70
2021/01/21 02:29:37;;;;;;;32.80;14.73;;;;;;;11.08;43.98;154025.64;1769790;81;21329;-70
2021/01/21 02:32:17;;;;;;;31.60;14.20;;;;;;;11.33;43.66;154089.94;1765888;81;21246;-70
2021/01/21 02:35:04;;;;;;;35.10;13.85;;;;;;;11.29;43.15;154080.72;1771722;80;21206;-70
2021/01/21 02:37:39;;;;;;;34.50;13.85;;;;;;;11.22;45.36;154061.09;1760972;80;21351;-70
2021/01/21 02:40:14;;;;;;;36.08;14.75;;;;;;;11.09;44.89;154028.28;1768788;81;21301;-70
2021/01/21 02:42:49;;;;;;;39.75;14.05;;;;;;;11.19;43.61;154054.50;1740794;81;21441;-71
2021/01/21 02:45:24;;;;;;;35.98;15.45;;;;;;;10.96;43.02;153992.89;1765569;81;21205;-70
2021/01/21 02:47:58;;;;;;;32.65;14.03;;;;;;;11.35;45.01;154095.14;1761946;81;21170;-71
2021/01/21 02:50:33;;;;;;;35.03;14.50;;;;;;;11.41;47.31;154110.91;1770735;80;21732;-71
2021/01/21 02:53:07;;;;;;;32.88;15.32;;;;;;;11.28;44.19;154076.80;1772880;81;21199;-70
2021/01/21 02:55:57;;;;;;;34.90;14.07;;;;;;;11.35;45.49;154096.48;1761019;81;21838;-71
2021/01/21 02:58:38;;;;;;;34.67;14.45;;;;;;;11.29;45.71;154080.72;1772234;81;21253;-70
2021/01/21 03:01:12;;;;;;;;;;;;;;;11.24;43.76;154067.63;1775114;79;21349;-70
2021/01/21 03:03:47;;;;;;;32.20;13.53;;;;;;;10.70;44.00;153923.41;1773727;80;20619;-69
2021/01/21 03:06:22;;;;;;;30.05;13.68;;;;;;;11.14;43.47;154041.41;1762017;80;21821;-71
2021/01/21 03:08:56;;;;;;;34.90;12.70;;;;;;;11.14;44.82;154040.06;1780743;80;21378;-71
2021/01/21 03:11:32;;;;;;;31.68;14.47;;;;;;;11.14;43.16;154040.06;1761555;80;21348;-71
2021/01/21 03:14:07;;;;;;;32.98;14.20;;;;;;;11.51;43.79;154137.14;1750604;82;21325;-70
2021/01/21 03:16:42;;;;;;;29.25;14.63;;;;;;;11.33;43.42;154091.22;1742483;82;21362;-71
2021/01/21 03:19:17;;;;;;;36.00;12.90;;;;;;;11.49;43.42;154133.22;1752876;81;21670;-71
2021/01/21 03:21:50;;;;;;;31.02;13.75;;;;;;;11.28;43.43;154078.14;1744997;81;21820;-71
2021/01/21 03:24:24;;;;;;;29.30;12.50;;;;;;;11.00;43.59;154004.69;1748653;81;21647;-70
2021/01/21 03:26:59;;;;;;;29.35;13.65;;;;;;;11.17;43.84;154047.95;1748270;81;21157;-71
2021/01/21 03:29:32;;;;;;;34.33;13.68;;;;;;;11.25;43.28;154068.92;1746266;81;21368;-70
2021/01/21 03:32:05;;;;;;;32.50;12.90;;;;;;;11.16;43.64;154046.66;1748796;81;21737;-70
2021/01/21 03:34:40;;;;;;;36.38;15.60;;;;;;;10.80;44.15;153952.25;1745795;81;22447;-70
2021/01/21 03:37:13;;;;;;;36.58;15.20;;;;;;;11.02;43.99;154008.59;1750329;81;21309;-71
2021/01/21 03:39:48;;;;;;;35.35;13.93;;;;;;;11.22;44.28;154062.38;1737735;81;21396;-71
2021/01/21 03:42:31;;;;;;;32.85;13.58;;;;;;;11.19;43.69;154054.50;1739056;81;21201;-70
2021/01/21 03:45:14;;;;;;;32.55;14.05;;;;;;;10.87;43.75;153970.58;1714827;83;21218;-70
2021/01/21 03:47:47;;;;;;;34.73;14.90;;;;;;;11.09;44.13;154026.98;1743685;82;21162;-71
2021/01/21 03:50:22;;;;;;;33.15;14.23;;;;;;;11.13;44.31;154038.78;1741997;82;21845;-71
2021/01/21 03:52:55;;;;;;;35.03;14.50;;;;;;;10.76;43.84;153939.13;1744131;82;21726;-70
2021/01/21 03:55:29;;;;;;;31.42;13.80;;;;;;;11.02;44.23;154009.94;1741733;82;21314;-71
2021/01/21 03:58:03;;;;;;;32.67;14.43;;;;;;;11.19;43.90;154053.20;1741951;81;21882;-72
2021/01/21 04:00:44;;;;;;;30.52;12.50;;;;;;;11.13;43.71;154038.78;1744060;81;21190;-70
2021/01/21 04:03:17;;;;;;;34.85;14.20;;;;;;;11.37;43.82;154101.73;1751277;81;21191;-71
2021/01/21 04:05:55;;;;;;;34.75;12.63;;;;;;;11.05;43.58;154017.77;1747257;81;21288;-70
2021/01/21 04:08:29;;;;;;;37.15;13.72;;;;;;;11.30;43.58;154083.34;1760653;81;21900;-71
2021/01/21 04:11:03;;;;;;;36.08;13.95;;;;;;;11.42;43.92;154113.55;1725042;82;21166;-71
2021/01/21 04:13:38;;;;;;;31.82;14.25;;;;;;;11.37;43.98;154101.73;1761099;81;21344;-71
2021/01/21 04:16:12;;;;;;;35.45;14.03;;;;;;;11.43;44.04;154117.45;1756894;81;21340;-70
2021/01/21 04:18:45;;;;;;;31.02;13.35;;;;;;;11.53;43.96;154142.45;1736244;81;21685;-70
2021/01/21 04:21:19;;;;;;;34.13;14.75;;;;;;;11.33;43.56;154089.94;1749790;82;21302;-71
2021/01/21 04:23:59;;;;;;;33.33;15.20;;;;;;;11.16;43.96;154045.31;1743755;81;21303;-68
2021/01/21 04:26:30;;;;;;;36.23;14.90;;;;;;;11.00;43.87;154003.34;1759479;80;21380;-71
2021/01/21 04:29:04;;;;;;;35.40;15.72;;;;;;;11.20;44.43;154055.83;1761901;81;21304;-70
2021/01/21 04:31:37;;;;;;;40.35;14.78;;;;;;;11.14;44.08;154041.41;1758286;80;21850;-71
2021/01/21 04:34:15;;;;;;;37.13;13.93;;;;;;;11.01;44.05;154005.97;1749358;82;21819;-71
2021/01/21 04:36:47;;;;;;;38.30;15.00;;;;;;;11.54;43.71;154145.08;1750092;81;21335;-70
2021/01/21 04:39:22;;;;;;;38.48;15.90;;;;;;;11.52;43.64;154139.77;1714958;83;21267;-72
2021/01/21 04:41:54;;;;;;;38.40;12.88;;;;;;;11.57;44.00;154154.25;1745987;80;21229;-77
2021/01/21 04:44:29;;;;;;;38.85;16.35;;;;;;;11.25;43.82;154070.27;1718295;82;21192;-73
2021/01/21 04:47:06;;;;;;;36.48;13.88;;;;;;;11.34;43.79;154092.56;1710687;82;21174;-78
2021/01/21 04:49:43;;;;;;;35.50;15.25;;;;;;;11.17;43.95;154049.23;1703564;83;21203;-75
2021/01/21 04:52:18;;;;;;;35.38;13.00;;;;;;;11.37;44.19;154100.41;1714039;83;21234;-69
2021/01/21 04:55:05;;;;;;;33.30;14.47;;;;;;;11.34;43.90;154092.56;1707705;83;22225;-71
2021/01/21 04:58:07;;;;;;;32.28;12.63;;;;;;;11.37;44.32;154100.41;1719628;81;21274;-73
2021/01/21 05:00:42;;;;;;;31.60;15.35;;;;;;;11.41;44.12;154110.91;1705099;82;21182;-73
2021/01/21 05:03:15;;;;;;;34.58;14.65;;;;;;;11.69;43.84;154187.03;1720593;81;21934;-71
2021/01/21 05:05:49;;;;;;;34.60;14.28;;;;;;;11.79;43.99;154213.31;1726631;82;21248;-69
2021/01/21 05:08:24;;;;;;;33.13;13.75;;;;;;;11.81;43.53;154218.52;1700522;83;21392;-71
2021/01/21 05:11:01;;;;;;;35.78;14.83;;;;;;;11.84;43.42;154225.13;1709947;82;21380;-70
2021/01/21 05:13:36;;;;;;;30.20;12.53;;;;;;;12.16;43.60;154309.11;1720669;82;21222;-71
2021/01/21 05:16:24;;;;;;;36.38;14.78;;;;;;;11.59;43.59;154159.50;1719685;82;21230;-70
2021/01/21 05:19:01;;;;;;;36.68;14.87;;;;;;;12.01;43.56;154271.06;1694648;83;21243;-70
2021/01/21 05:21:54;;;;;;;38.70;14.83;;;;;;;12.16;43.61;154310.39;1639874;85;21237;-71
2021/01/21 05:24:32;;;;;;;37.23;13.68;;;;;;;12.16;43.53;154310.39;1592572;88;21266;-61
2021/01/21 05:27:09;;;;;;;37.13;14.07;;;;;;;11.96;43.53;154257.91;1625574;83;21721;-61
2021/01/21 05:29:50;;;;;;;33.28;13.32;;;;;;;12.00;43.41;154268.42;1729445;82;21480;-62
2021/01/21 05:32:23;;;;;;;33.05;14.05;;;;;;;11.96;43.40;154256.63;1734603;82;21277;-59
2021/01/21 05:34:58;;;;;;;34.73;14.53;;;;;;;12.18;43.46;154315.66;1728719;82;21391;-61
2021/01/21 05:37:38;;;;;;;37.90;14.85;;;;;;;12.44;43.34;154382.64;1730530;82;21843;-59
2021/01/21 05:40:16;;;;;;;36.83;13.90;;;;;;;12.40;43.29;154373.41;1701774;82;21201;-60
2021/01/21 05:43:01;;;;;;;36.17;14.25;;;;;;;12.13;43.15;154301.22;1731224;82;21320;-59
2021/01/21 05:45:46;;;;;;;36.73;15.15;;;;;;;12.17;43.33;154313.03;1725752;82;21924;-59
2021/01/21 05:48:22;;;;;;;29.00;12.75;;;;;;;12.12;43.68;154299.92;1712019;82;21847;-61
2021/01/21 05:50:55;;;;;;;42.17;17.37;;;;;;;12.10;43.63;154294.67;1735527;82;21616;-68
2021/01/21 05:53:28;;;;;;;37.70;15.40;;;;;;;12.00;43.45;154268.42;1732614;82;21376;-61
2021/01/21 05:56:02;;;;;;;39.20;14.75;;;;;;;12.27;43.60;154339.28;1735812;81;21328;-61
2021/01/21 05:58:39;;;;;;;45.35;17.95;;;;;;;12.16;43.43;154310.39;1720136;82;21246;-60
2021/01/21 06:01:12;;;;;;;44.13;19.42;;;;;;;12.29;43.44;154344.53;1716056;81;21207;-60
2021/01/21 06:03:46;;;;;;;37.15;16.07;;;;;;;12.47;43.48;154390.48;1711805;81;22423;-60
2021/01/21 06:06:29;;;;;;;35.65;14.85;;;;;;;12.50;43.68;154398.38;1710727;81;21281;-59
2021/01/21 06:09:02;;;;;;;34.13;14.47;;;;;;;12.41;43.46;154376.05;1683145;82;21353;-59
2021/01/21 06:12:04;;;;;;;36.60;14.40;;;;;;;12.35;43.16;154358.97;1641014;84;21302;-59
2021/01/21 06:15:21;;;;;;;36.45;15.60;;;;;;;12.54;43.46;154410.19;1681817;82;21244;-57
2021/01/21 06:18:05;;;;;;;34.43;14.33;;;;;;;12.64;43.47;154437.78;1680292;83;21258;-59
2021/01/21 06:20:43;;;;;;;33.05;14.50;;;;;;;12.71;43.22;154454.86;1697970;84;21446;-59
2021/01/21 06:23:18;;;;;;;33.15;14.13;;;;;;;12.55;43.01;154412.81;1711009;83;21394;-60
2021/01/21 06:25:56;;;;;;;33.18;14.10;;;;;;;12.60;43.00;154425.97;1730493;83;21899;-60
2021/01/21 06:28:29;;;;;;;37.83;15.20;;;;;;;12.46;43.20;154387.84;1732144;83;22500;-61
2021/01/21 06:31:02;;;;;;;35.45;14.87;;;;;;;12.52;43.22;154404.92;1729938;83;21336;-60
2021/01/21 06:33:38;;;;;;;35.17;15.25;;;;;;;12.74;43.38;154462.70;1694402;83;21673;-60
2021/01/21 06:36:14;;;;;;;35.38;15.30;;;;;;;12.47;43.16;154391.83;1702320;83;21514;-60
2021/01/21 06:38:49;;;;;;;38.70;16.37;;;;;;;12.78;43.25;154474.56;1700170;84;21194;-60
2021/01/21 06:41:22;;;;;;;33.00;13.58;;;;;;;12.76;42.93;154469.31;1700071;83;21383;-60
2021/01/21 06:43:54;;;;;;;35.75;14.83;;;;;;;12.69;43.03;154449.59;1699946;84;21371;-61
2021/01/21 06:46:27;;;;;;;33.58;13.08;;;;;;;12.63;43.23;154433.81;1731684;83;21368;-60
2021/01/21 06:49:00;;;;;;;32.65;15.58;;;;;;;12.37;43.50;154364.23;1732260;83;21312;-60
2021/01/21 06:51:33;;;;;;;34.90;16.00;;;;;;;12.68;42.99;154446.97;1731720;83;21320;-60
2021/01/21 06:54:07;;;;;;;40.60;15.78;;;;;;;13.04;43.22;154542.89;1731921;83;21371;-60
2021/01/21 06:56:39;;;;;;;41.77;15.30;;;;;;;12.66;43.10;154443.05;1712863;83;21190;-59
2021/01/21 06:59:12;;;;;;;38.13;14.05;;;;;;;12.72;43.16;154458.78;1725667;83;21213;-59
2021/01/21 07:01:45;;;;;;;37.08;14.73;;;;;;;12.49;43.29;154395.75;1715490;83;21214;-59
2021/01/21 07:04:25;;;;;;;36.73;13.32;;;;;;;12.39;43.50;154370.78;1732396;83;21183;-60
2021/01/21 07:07:07;;;;;;;38.40;15.75;;;;;;;12.11;44.09;154297.30;1729696;83;21154;-60
2021/01/21 07:09:40;;;;;;;31.35;14.18;;;;;;;12.68;43.35;154446.97;1729639;82;21218;-59
2021/01/21 07:12:16;;;;;;;38.13;15.55;;;;;;;12.56;44.09;154414.16;1703768;83;21213;-60
2021/01/21 07:14:51;;;;;;;28.35;12.10;;;;;;;13.06;43.23;154546.86;1732160;83;21435;-60
2021/01/21 07:17:22;;;;;;;39.63;14.63;;;;;;;12.58;43.62;154422.00;1705792;83;21332;-60
2021/01/21 07:19:56;;;;;;;34.78;13.72;;;;;;;12.89;43.51;154503.52;1683368;83;21360;-60
2021/01/21 07:22:31;;;;;;;32.90;14.53;;;;;;;13.32;43.05;154615.14;1671093;83;21324;-60
2021/01/21 07:25:10;;;;;;;36.25;14.15;;;;;;;13.05;43.11;154545.52;1702843;81;21220;-59
2021/01/21 07:27:43;;;;;;;34.18;13.32;;;;;;;13.52;42.98;154667.75;1744846;81;21170;-58
2021/01/21 07:30:23;;;;;;;35.45;14.85;;;;;;;13.38;42.90;154630.94;1717812;82;21194;-59
2021/01/21 07:33:25;;;;;;;36.45;14.83;;;;;;;13.45;42.94;154649.31;1767337;81;21819;-58
2021/01/21 07:35:58;;;;;;;36.68;15.30;;;;;;;13.34;42.98;154620.41;1775886;81;21483;-58
2021/01/21 07:38:48;;;;;;;35.10;14.80;;;;;;;13.47;42.68;154655.92;1773854;81;21336;-60
2021/01/21 07:41:49;;;;;;;33.13;15.00;;;;;;;13.65;43.18;154704.56;1751062;81;21771;-59
2021/01/21 07:44:22;;;;;;;31.85;13.55;;;;;;;13.48;42.71;154657.22;1744914;82;21320;-60
2021/01/21 07:46:55;;;;;;;31.00;13.38;;;;;;;13.28;42.99;154605.95;1772927;81;21281;-61
2021/01/21 07:49:29;;;;;;;39.00;15.93;;;;;;;13.57;42.85;154683.50;1775961;79;21205;-61
2021/01/21 07:52:06;;;;;;;30.72;13.18;;;;;;;13.93;43.10;154776.86;1776067;81;21405;-58
2021/01/21 07:54:48;;;;;;;39.58;16.77;;;;;;;13.63;42.48;154699.28;1775284;81;21217;-58
2021/01/21 07:57:24;;;;;;;35.48;15.43;;;;;;;13.84;42.75;154754.48;1745489;81;21359;-57
2021/01/21 07:59:59;;;;;;;35.68;14.15;;;;;;;13.92;42.38;154774.22;1745982;81;21174;-58
2021/01/21 08:02:49;;;;;;;31.15;13.22;;;;;;;13.70;42.53;154716.38;1760861;81;21213;-58
2021/01/21 08:05:25;;;;;;;33.33;13.78;;;;;;;13.97;42.66;154788.69;1747282;81;21367;-59
2021/01/21 08:07:59;;;;;;;41.45;13.70;;;;;;;14.10;43.13;154821.53;1745326;81;21713;-60
2021/01/21 16:12:00;;;;;;;44.50;19.35;;;;;;;12.02;53.00;154273.69;1797395;77;21182;-62
2021/01/21 16:14:32;;;;;;;42.48;18.35;;;;;;;12.33;52.62;154355.05;1794208;77;21459;-63
2021/01/21 16:17:06;;;;;;;39.23;16.23;;;;;;;12.25;52.71;154334.06;1792365;78;21214;-59
2021/01/21 16:19:40;;;;;;;39.08;17.40;;;;;;;12.03;52.80;154274.97;1733010;79;21811;-63
2021/01/21 16:22:15;;;;;;;35.33;15.13;;;;;;;12.91;51.88;154507.44;1734772;81;21404;-65
2021/01/21 16:24:48;;;;;;;37.48;15.75;;;;;;;12.07;52.73;154286.78;1789614;77;21399;-63
2021/01/21 16:27:22;;;;;;;39.20;15.55;;;;;;;12.26;52.69;154336.69;1791588;77;21183;-66
2021/01/21 16:29:57;;;;;;;34.92;15.03;;;;;;;12.39;52.75;154370.78;1790212;78;21225;-65
2021/01/21 16:32:30;;;;;;;35.98;17.25;;;;;;;12.34;52.37;154357.69;1791557;78;21338;-77
2021/01/21 16:35:03;;;;;;;40.38;17.30;;;;;;;12.37;52.62;154365.58;1787247;78;21254;-62
2021/01/21 16:37:36;;;;;;;33.13;14.73;;;;;;;12.32;52.61;154351.13;1795199;78;21812;-61
2021/01/21 16:40:11;;;;;;;41.42;18.52;;;;;;;12.59;52.11;154423.34;1792059;78;21442;-61
2021/01/21 16:42:43;;;;;;;35.48;16.25;;;;;;;12.91;51.74;154508.72;1805185;78;21317;-61
2021/01/21 16:45:16;;;;;;;40.67;17.92;;;;;;;12.57;52.49;154416.73;1802417;77;21387;-61
2021/01/21 16:47:50;;;;;;;42.13;17.52;;;;;;;12.62;52.16;154432.53;1732098;80;21391;-62
2021/01/21 16:50:24;;;;;;;42.85;17.25;;;;;;;12.70;52.09;154453.52;1733849;81;21722;-64
2021/01/21 16:52:57;;;;;;;36.42;15.60;;;;;;;12.27;52.74;154339.28;1734463;79;21765;-63
2021/01/21 16:55:30;;;;;;;41.68;18.30;;;;;;;12.68;52.02;154446.97;1725551;81;21214;-61
2021/01/21 16:58:02;;;;;;;36.33;16.15;;;;;;;12.74;52.15;154464.05;1737164;81;21444;-61
2021/01/21 17:00:35;;;;;;;39.23;18.27;;;;;;;13.26;51.52;154599.41;1726720;80;21299;-74
2021/01/21 17:03:09;;;;;;;34.60;17.15;;;;;;;12.66;52.01;154441.70;1758125;79;21492;-74
2021/01/21 17:05:42;;;;;;;41.37;16.40;;;;;;;13.02;52.11;154536.34;1799021;78;21328;-65
2021/01/21 17:08:16;;;;;;;40.75;17.07;;;;;;;12.67;52.38;154444.34;1798732;78;21249;-64
2021/01/21 17:10:50;;;;;;;32.90;15.65;;;;;;;12.74;52.13;154462.70;1798089;78;21669;-63
2021/01/21 17:13:23;;;;;;;37.55;17.27;;;;;;;12.93;51.95;154512.70;1784445;77;21641;-63
2021/01/21 17:15:56;;;;;;;38.60;18.02;;;;;;;13.20;51.81;154583.61;1789181;77;21188;-62
2021/01/21 17:18:30;;;;;;;41.35;17.07;;;;;;;13.53;51.65;154673.02;1804274;77;21147;-65
2021/01/21 17:21:03;;;;;;;36.93;17.60;;;;;;;13.69;51.68;154713.75;1800572;78;21373;-63
2021/01/21 17:23:36;;;;;;;40.98;18.87;;;;;;;13.57;50.87;154682.20;1791062;77;21334;-65
2021/01/21 17:26:10;;;;;;;34.65;16.73;;;;;;;13.73;51.48;154725.58;1798035;77;22335;-61
2021/01/21 17:28:43;;;;;;;37.23;16.05;;;;;;;13.38;51.11;154632.22;1790833;78;21375;-61
2021/01/21 17:31:16;;;;;;;41.13;16.42;;;;;;;13.53;51.14;154673.02;1732757;80;21244;-61
2021/01/21 17:33:50;;;;;;;37.33;17.57;;;;;;;13.55;51.29;154678.22;1738602;81;21468;-57
2021/01/21 17:36:24;;;;;;;36.58;15.88;;;;;;;13.45;51.40;154649.31;1728998;80;21194;-64
2021/01/21 17:38:57;;;;;;;45.50;17.48;;;;;;;13.29;51.65;154607.30;1721524;81;21223;-63
2021/01/21 17:41:29;;;;;;;37.53;14.98;;;;;;;13.13;52.06;154565.23;1736675;81;21412;-63
2021/01/21 17:44:04;;;;;;;38.13;15.98;;;;;;;13.05;51.86;154545.52;1732175;79;21441;-60
2021/01/21 17:46:37;;;;;;;36.33;16.97;;;;;;;13.00;52.12;154532.41;1761912;79;21353;-59
2021/01/21 17:49:10;;;;;;;37.20;16.37;;;;;;;13.16;51.77;154573.13;1731358;81;21252;-60
2021/01/21 17:51:45;;;;;;;36.63;16.40;;;;;;;13.70;51.07;154716.38;1738852;80;22497;-60
2021/01/21 17:54:18;;;;;;;36.45;16.42;;;;;;;13.69;51.30;154715.05;1731002;79;21250;-59
2021/01/21 17:56:52;;;;;;;37.95;17.27;;;;;;;14.04;50.76;154807.06;1792461;78;21265;-58
2021/01/21 17:59:26;;;;;;;37.38;15.43;;;;;;;13.49;51.31;154661.14;1799677;77;21308;-61
2021/01/21 18:01:59;;;;;;;38.00;17.52;;;;;;;13.41;51.54;154640.13;1800821;77;21756;-60
2021/01/21 18:04:33;;;;;;;32.95;15.65;;;;;;;13.59;51.59;154687.47;1722158;80;21716;-64
2021/01/21 18:07:07;;;;;;;36.33;15.53;;;;;;;13.53;51.69;154670.37;1741821;80;21427;-64
2021/01/21 18:09:41;;;;;;;36.42;16.10;;;;;;;13.85;51.60;154757.12;1730133;79;21236;-63
2021/01/21 18:12:15;;;;;;;38.48;17.50;;;;;;;13.79;51.52;154741.31;1730298;80;21261;-63
2021/01/21 18:14:48;;;;;;;36.53;16.73;;;;;;;13.70;51.35;154716.38;1737171;80;21850;-63
2021/01/21 18:17:21;;;;;;;36.10;16.45;;;;;;;13.86;51.64;154758.42;1758511;79;21365;-69
2021/01/21 18:19:55;;;;;;;34.23;14.70;;;;;;;13.86;51.46;154759.77;1730797;81;21712;-61
2021/01/21 18:22:28;;;;;;;35.40;15.23;;;;;;;13.68;51.38;154711.13;1732862;80;21265;-67
2021/01/21 18:25:00;;;;;;;37.60;16.20;;;;;;;13.38;51.81;154632.22;1729854;80;21498;-61
2021/01/21 18:27:34;;;;;;;39.13;16.77;;;;;;;14.29;50.67;154872.88;1716372;81;21277;-61
2021/01/21 18:30:09;;;;;;;37.10;15.70;;;;;;;14.32;50.57;154879.44;1715423;81;21891;-61
2021/01/21 18:32:42;;;;;;;35.88;15.63;;;;;;;14.34;50.45;154886.06;1795770;78;21264;-64
2021/01/21 18:35:15;;;;;;;38.23;17.65;;;;;;;14.29;50.50;154871.59;1796927;78;21410;-66
2021/01/21 18:37:48;;;;;;;37.55;15.93;;;;;;;13.99;50.96;154793.95;1793416;77;21348;-65
2021/01/21 18:40:22;;;;;;;33.60;15.20;;;;;;;13.74;51.58;154726.86;1801245;77;21344;-65
2021/01/21 18:42:55;;;;;;;36.68;16.73;;;;;;;14.15;51.21;154834.75;1806360;78;21781;-65
2021/01/21 18:45:28;;;;;;;30.88;15.32;;;;;;;14.42;51.13;154907.09;1795294;77;21213;-64
2021/01/21 18:48:01;;;;;;;41.15;17.42;;;;;;;13.93;51.36;154778.16;1802421;78;21256;-60
2021/01/21 18:50:34;;;;;;;37.03;14.85;;;;;;;14.03;51.59;154804.44;1803110;77;21273;-65
2021/01/21 18:53:08;;;;;;;41.68;17.90;;;;;;;14.16;51.63;154838.69;1781562;77;21129;-65
2021/01/21 18:55:42;;;;;;;37.40;15.75;;;;;;;13.93;51.80;154776.86;1793171;77;21253;-62
2021/01/21 18:58:16;;;;;;;35.52;16.37;;;;;;;14.18;52.15;154843.95;1801889;77;21368;-62
2021/01/21 19:00:50;;;;;;;39.85;16.73;;;;;;;13.96;52.25;154786.05;1789344;78;21473;-62
2021/01/21 19:03:24;;;;;;;41.15;16.90;;;;;;;13.99;51.93;154792.61;1813295;78;22411;-60
2021/01/21 19:05:58;;;;;;;36.25;16.42;;;;;;;13.87;51.87;154762.39;1799460;78;22535;-61
2021/01/21 19:08:39;;;;;;;33.95;16.50;;;;;;;14.16;51.98;154838.69;1761204;80;21210;-62
2021/01/21 19:11:15;;;;;;;36.35;16.37;;;;;;;14.10;52.02;154821.53;1726289;81;21242;-63
2021/01/21 19:13:48;;;;;;;41.50;16.60;;;;;;;14.38;51.84;154895.25;1724709;81;21524;-63
2021/01/21 19:16:21;;;;;;;38.67;16.57;;;;;;;14.15;52.47;154836.05;1732240;81;21282;-63
2021/01/21 19:18:53;;;;;;;39.92;17.37;;;;;;;13.76;52.11;154732.13;1808485;77;21232;-63
2021/01/21 19:21:26;;;;;;;32.42;15.40;;;;;;;14.10;52.40;154822.87;1803268;78;21744;-63
2021/01/21 19:23:59;;;;;;;34.50;15.75;;;;;;;14.38;51.48;154896.55;1802792;79;21308;-62
2021/01/21 19:26:32;;;;;;;40.03;17.67;;;;;;;14.23;51.74;154857.13;1802224;78;21229;-59
2021/01/21 19:29:05;;;;;;;39.15;16.82;;;;;;;14.30;52.49;154875.52;1801988;78;21218;-62
2021/01/21 19:31:40;;;;;;;40.30;19.25;;;;;;;14.28;52.17;154870.25;1784847;78;21226;-62
2021/01/21 19:34:13;;;;;;;45.50;18.77;;;;;;;14.35;52.69;154888.64;1805754;78;21383;-62
2021/01/21 19:36:45;;;;;;;42.08;17.73;;;;;;;14.52;52.53;154933.39;1810023;78;21222;-62
2021/01/21 19:39:19;;;;;;;35.88;17.07;;;;;;;14.76;51.75;154996.53;1813702;78;22620;-65
2021/01/21 19:41:52;;;;;;;43.75;16.93;;;;;;;15.21;51.50;155116.31;1809259;78;21349;-66
2021/01/21 19:44:25;;;;;;;37.00;17.02;;;;;;;15.17;51.98;155105.77;1805512;78;21404;-65
2021/01/21 19:46:58;;;;;;;43.50;18.07;;;;;;;15.11;51.50;155088.66;1806464;78;21225;-65
2021/01/21 19:49:32;;;;;;;44.98;19.50;;;;;;;15.04;51.48;155070.25;1803131;78;21305;-65